createdAt,value
2018-11-10T00:01:26.113Z,62.33
2018-11-10T00:03:54.185Z,60.77
2018-11-10T00:06:22.241Z,60.53
2018-11-10T00:08:50.274Z,57.43
2018-11-10T00:11:18.334Z,60.73
2018-11-10T00:13:46.414Z,54.50
2018-11-10T00:16:14.462Z,58.07
2018-11-10T00:18:42.523Z,62.60
2018-11-10T00:21:10.614Z,54.53
2018-11-10T00:23:38.706Z,57.03
2018-11-10T00:26:06.780Z,55.80
2018-11-10T00:28:34.856Z,57.37
2018-11-10T00:31:02.918Z,61.30
2018-11-10T00:33:30.981Z,53.10
2018-11-10T00:35:59.070Z,57.37
2018-11-10T00:38:27.126Z,60.00
2018-11-10T00:40:55.181Z,59.37
2018-11-10T00:43:23.242Z,55.07
2018-11-10T00:45:51.305Z,57.47
2018-11-10T00:48:19.361Z,53.60
2018-11-10T00:50:47.450Z,60.80
2018-11-10T00:53:15.533Z,54.70
2018-11-10T00:55:43.582Z,53.17
2018-11-10T00:58:11.653Z,54.60
2018-11-10T01:00:39.732Z,52.77
2018-11-10T01:03:07.793Z,56.20
2018-11-10T01:05:35.887Z,57.27
2018-11-10T01:08:03.909Z,52.40
2018-11-10T01:10:31.981Z,54.80
2018-11-10T01:13:00.038Z,49.87
2018-11-10T01:15:28.156Z,50.13
2018-11-10T01:17:56.246Z,51.97
2018-11-10T01:20:24.322Z,51.97
2018-11-10T01:22:52.493Z,51.87
2018-11-10T01:25:20.526Z,50.27
2018-11-10T01:27:48.650Z,51.67
2018-11-10T01:30:17.050Z,51.20
2018-11-10T01:32:45.962Z,51.20
2018-11-10T01:35:15.353Z,52.10
2018-11-10T01:37:43.493Z,52.87
2018-11-10T01:40:12.955Z,49.43
2018-11-10T01:42:41.665Z,51.30
2018-11-10T01:45:12.458Z,50.90
2018-11-10T01:47:40.622Z,49.60
2018-11-10T01:50:09.518Z,52.70
2018-11-10T01:52:37.778Z,51.70
2018-11-10T01:55:06.085Z,52.93
2018-11-10T01:57:34.134Z,48.57
2018-11-10T02:00:02.201Z,50.10
2018-11-10T02:02:30.249Z,49.17
2018-11-10T02:04:58.330Z,46.00
2018-11-10T02:07:26.406Z,50.30
2018-11-10T02:09:54.623Z,49.27
2018-11-10T02:12:22.716Z,49.07
2018-11-10T02:14:50.788Z,48.10
2018-11-10T02:17:18.906Z,47.60
2018-11-10T02:19:46.982Z,48.50
2018-11-10T02:22:15.033Z,47.00
2018-11-10T02:24:43.081Z,44.87
2018-11-10T02:27:16.445Z,46.93
2018-11-10T02:29:44.525Z,46.63
2018-11-10T02:32:12.629Z,48.80
2018-11-10T02:34:40.689Z,44.50
2018-11-10T02:37:08.745Z,46.10
2018-11-10T02:39:36.817Z,50.00
2018-11-10T02:42:04.887Z,49.10
2018-11-10T02:44:33.559Z,47.27
2018-11-10T02:47:01.631Z,48.33
2018-11-10T02:49:29.756Z,48.30
2018-11-10T02:51:57.846Z,47.17
2018-11-10T02:54:25.910Z,46.40
2018-11-10T02:56:53.954Z,45.00
2018-11-10T02:59:22.054Z,43.67
2018-11-10T03:01:50.114Z,46.17
2018-11-10T03:04:18.392Z,43.40
2018-11-10T03:06:46.454Z,46.57
2018-11-10T03:09:14.513Z,45.73
2018-11-10T03:11:42.599Z,43.57
2018-11-10T03:14:10.653Z,43.50
2018-11-10T03:16:38.729Z,45.23
2018-11-10T03:19:06.826Z,42.90
2018-11-10T03:21:35.082Z,42.50
2018-11-10T03:24:03.141Z,41.07
2018-11-10T03:26:31.215Z,41.13
2018-11-10T03:28:59.298Z,42.20
2018-11-10T03:31:27.350Z,41.20
2018-11-10T03:33:55.417Z,40.73
2018-11-10T03:36:23.487Z,41.87
2018-11-10T03:38:51.569Z,38.77
2018-11-10T03:41:19.625Z,38.40
2018-11-10T03:43:54.520Z,36.53
2018-11-10T03:46:22.618Z,37.83
2018-11-10T03:48:51.376Z,38.63
2018-11-10T03:51:19.373Z,38.43
2018-11-10T03:53:47.453Z,36.03
2018-11-10T03:56:15.500Z,36.40
2018-11-10T03:58:44.181Z,39.20
2018-11-10T04:01:12.237Z,35.63
2018-11-10T04:03:40.341Z,39.23
2018-11-10T04:06:08.415Z,38.50
2018-11-10T04:08:36.457Z,38.60
2018-11-10T04:11:04.874Z,35.40
2018-11-10T04:13:32.954Z,34.23
2018-11-10T04:16:01.025Z,35.20
2018-11-10T04:18:29.097Z,35.00
2018-11-10T04:20:57.165Z,31.60
2018-11-10T04:23:25.238Z,36.00
2018-11-10T04:25:53.270Z,35.57
2018-11-10T04:28:21.323Z,33.67
2018-11-10T04:30:49.373Z,33.63
2018-11-10T04:33:17.432Z,33.23
2018-11-10T04:35:45.493Z,35.87
2018-11-10T04:38:13.597Z,33.73
2018-11-10T04:40:41.649Z,33.63
2018-11-10T04:43:09.684Z,34.30
2018-11-10T04:45:37.717Z,31.87
2018-11-10T04:48:05.756Z,32.27
2018-11-10T04:50:33.801Z,34.57
2018-11-10T04:53:01.836Z,33.97
2018-11-10T04:55:29.929Z,35.87
2018-11-10T04:57:57.953Z,32.37
2018-11-10T05:00:26.014Z,33.00
2018-11-10T05:02:54.066Z,34.97
2018-11-10T05:05:22.119Z,34.40
2018-11-10T05:07:50.158Z,31.90
2018-11-10T05:10:18.207Z,33.50
2018-11-10T05:12:46.266Z,31.10
2018-11-10T05:15:14.546Z,33.80
2018-11-10T05:17:42.667Z,30.87
2018-11-10T05:20:10.776Z,32.37
2018-11-10T05:22:38.895Z,35.40
2018-11-10T05:25:07.635Z,30.93
2018-11-10T05:27:35.693Z,32.00
2018-11-10T05:30:04.537Z,35.37
2018-11-10T05:32:32.594Z,31.70
2018-11-10T05:35:00.641Z,32.90
2018-11-10T05:37:28.737Z,33.53
2018-11-10T05:39:56.794Z,30.03
2018-11-10T05:42:24.990Z,33.30
2018-11-10T05:44:53.032Z,34.13
2018-11-10T05:47:21.090Z,31.20
2018-11-10T05:49:49.155Z,33.40
2018-11-10T05:52:17.218Z,30.67
2018-11-10T05:54:45.281Z,34.23
2018-11-10T05:57:15.538Z,32.13
2018-11-10T05:59:43.478Z,31.63
2018-11-10T06:02:11.546Z,31.60
2018-11-10T06:04:39.590Z,31.30
2018-11-10T06:07:07.634Z,31.40
2018-11-10T06:09:35.876Z,30.77
2018-11-10T06:12:03.918Z,30.40
2018-11-10T06:14:31.987Z,30.80
2018-11-10T06:17:00.051Z,32.33
2018-11-10T06:19:28.124Z,31.47
2018-11-10T06:21:56.180Z,31.60
2018-11-10T06:24:24.605Z,32.93
2018-11-10T06:26:52.657Z,29.87
2018-11-10T06:29:20.716Z,31.60
2018-11-10T06:31:48.769Z,33.30
2018-11-10T06:34:16.828Z,31.70
2018-11-10T06:36:44.870Z,32.10
2018-11-10T06:39:13.005Z,32.47
2018-11-10T06:41:41.314Z,33.23
2018-11-10T06:44:09.710Z,31.87
2018-11-10T06:46:38.165Z,30.13
2018-11-10T06:49:06.654Z,31.40
2018-11-10T06:51:34.701Z,33.53
2018-11-10T06:54:02.758Z,31.20
2018-11-10T06:56:30.817Z,31.60
2018-11-10T06:58:58.886Z,30.90
2018-11-10T07:01:26.936Z,31.20
2018-11-10T07:03:55.040Z,31.63
2018-11-10T07:06:23.069Z,31.80
2018-11-10T07:08:51.157Z,30.63
2018-11-10T07:11:19.210Z,32.60
2018-11-10T07:13:47.265Z,30.93
2018-11-10T07:16:15.302Z,31.70
2018-11-10T07:18:43.512Z,29.20
2018-11-10T07:21:11.574Z,30.93
2018-11-10T07:23:39.669Z,31.50
2018-11-10T07:26:07.718Z,29.93
2018-11-10T07:28:35.801Z,31.97
2018-11-10T07:31:03.856Z,27.73
2018-11-10T07:33:32.505Z,29.60
2018-11-10T07:36:00.558Z,28.00
2018-11-10T07:38:28.612Z,27.20
2018-11-10T07:40:56.662Z,28.13
2018-11-10T07:43:24.722Z,28.03
2018-11-10T07:45:53.398Z,27.60
2018-11-10T07:48:21.470Z,26.53
2018-11-10T07:50:49.538Z,26.50
2018-11-10T07:53:17.597Z,26.43
2018-11-10T07:55:45.662Z,26.70
2018-11-10T07:58:13.750Z,27.73
2018-11-10T08:00:41.833Z,24.80
2018-11-10T08:03:09.889Z,26.80
2018-11-10T08:05:37.954Z,25.17
2018-11-10T08:08:06.227Z,27.00
2018-11-10T08:10:34.280Z,22.73
2018-11-10T08:13:02.326Z,22.90
2018-11-10T08:15:30.428Z,22.97
2018-11-10T08:17:58.674Z,23.63
2018-11-10T08:20:26.760Z,24.23
2018-11-10T08:22:54.845Z,26.07
2018-11-10T08:25:22.893Z,24.67
2018-11-10T08:27:50.966Z,22.60
2018-11-10T08:30:19.033Z,24.30
2018-11-10T08:32:47.097Z,23.40
2018-11-10T08:35:15.443Z,22.27
2018-11-10T08:37:43.485Z,21.50
2018-11-10T08:40:14.152Z,23.40
2018-11-10T08:42:42.278Z,20.60
2018-11-10T08:45:11.741Z,23.10
2018-11-10T08:47:40.130Z,20.97
2018-11-10T08:50:09.097Z,23.63
2018-11-10T08:52:37.181Z,23.50
2018-11-10T08:55:05.988Z,21.60
2018-11-10T08:57:34.093Z,22.17
2018-11-10T09:00:02.113Z,19.30
2018-11-10T09:02:30.202Z,23.90
2018-11-10T09:04:58.262Z,22.67
2018-11-10T09:07:26.491Z,24.23
2018-11-10T09:09:54.697Z,20.80
2018-11-10T09:12:22.757Z,21.60
2018-11-10T09:14:50.839Z,27.43
2018-11-10T09:17:18.882Z,28.80
2018-11-10T09:19:46.923Z,20.23
2018-11-10T09:22:14.995Z,21.93
2018-11-10T09:24:44.120Z,22.50
2018-11-10T09:27:13.773Z,24.57
2018-11-10T09:29:41.809Z,21.70
2018-11-10T09:32:09.866Z,24.07
2018-11-10T09:34:37.913Z,20.83
2018-11-10T09:37:06.162Z,22.53
2018-11-10T09:39:34.391Z,21.00
2018-11-10T09:42:02.459Z,21.27
2018-11-10T09:44:30.540Z,20.03
2018-11-10T09:46:58.601Z,20.23
2018-11-10T09:49:26.772Z,20.57
2018-11-10T09:51:54.897Z,19.47
2018-11-10T09:54:22.957Z,19.20
2018-11-10T09:56:51.083Z,23.80
2018-11-10T09:59:19.231Z,20.50
2018-11-10T10:01:47.671Z,20.30
2018-11-10T10:04:15.374Z,22.03
2018-11-10T10:06:43.454Z,22.20
2018-11-10T10:09:11.963Z,22.17
2018-11-10T10:11:40.641Z,23.50
2018-11-10T10:14:09.557Z,23.77
2018-11-10T10:16:37.832Z,23.80
2018-11-10T10:19:06.930Z,26.17
2018-11-10T10:21:35.053Z,19.43
2018-11-10T10:24:03.114Z,18.93
2018-11-10T10:26:31.261Z,19.53
2018-11-10T10:28:59.415Z,19.43
2018-11-10T10:31:27.485Z,18.17
2018-11-10T10:33:55.603Z,18.23
2018-11-10T10:36:23.604Z,20.50
2018-11-10T10:38:51.686Z,17.50
2018-11-10T10:41:19.813Z,17.70
2018-11-10T10:43:48.071Z,19.20
2018-11-10T10:46:16.121Z,20.33
2018-11-10T10:48:45.816Z,27.70
2018-11-10T10:51:13.857Z,26.77
2018-11-10T10:53:42.138Z,16.57
2018-11-10T10:56:10.264Z,22.83
2018-11-10T10:58:38.351Z,20.80
2018-11-10T11:01:11.965Z,16.03
2018-11-10T11:03:45.266Z,14.50
2018-11-10T11:06:13.326Z,14.60
2018-11-10T11:08:41.378Z,14.10
2018-11-10T11:11:09.422Z,12.50
2018-11-10T11:13:37.491Z,12.30
2018-11-10T11:16:06.629Z,12.13
2018-11-10T11:18:34.653Z,13.50
2018-11-10T11:21:02.717Z,12.03
2018-11-10T11:23:30.761Z,10.57
2018-11-10T11:25:58.893Z,13.13
2018-11-10T11:28:26.927Z,11.47
2018-11-10T11:30:55.022Z,11.83
2018-11-10T11:33:23.122Z,11.73
2018-11-10T11:35:51.196Z,10.10
2018-11-10T11:38:19.317Z,13.20
2018-11-10T11:40:47.406Z,10.50
2018-11-10T11:43:15.577Z,10.33
2018-11-10T11:45:43.635Z,10.40
2018-11-10T11:48:11.694Z,10.93
2018-11-10T11:50:39.760Z,9.27
2018-11-10T11:53:07.810Z,8.33
2018-11-10T11:55:35.853Z,9.30
2018-11-10T11:58:04.045Z,9.43
2018-11-10T12:00:31.971Z,10.90
2018-11-10T12:03:00.025Z,7.80
2018-11-10T12:05:28.086Z,8.00
2018-11-10T12:07:56.146Z,8.40
2018-11-10T12:10:24.371Z,7.73
2018-11-10T12:12:52.410Z,8.90
2018-11-10T12:15:20.530Z,9.30
2018-11-10T12:17:48.681Z,8.77
2018-11-10T12:20:17.022Z,7.67
2018-11-10T12:22:45.078Z,10.57
2018-11-10T12:25:13.986Z,21.63
2018-11-10T12:27:42.775Z,9.33
2018-11-10T12:30:11.250Z,8.43
2018-11-10T12:32:39.829Z,8.40
2018-11-10T12:35:08.685Z,8.80
2018-11-10T12:37:36.724Z,9.00
2018-11-10T12:40:06.544Z,8.40
2018-11-10T12:42:35.201Z,8.97
2018-11-10T12:45:03.326Z,8.83
2018-11-10T12:47:31.473Z,9.10
2018-11-10T12:49:59.495Z,8.20
2018-11-10T12:52:27.551Z,8.93
2018-11-10T12:54:55.745Z,9.97
2018-11-10T12:57:23.839Z,10.07
2018-11-10T12:59:51.896Z,9.80
2018-11-10T13:02:19.987Z,9.10
2018-11-10T13:04:48.090Z,10.53
2018-11-10T13:07:16.179Z,10.10
2018-11-10T13:09:44.193Z,9.40
2018-11-10T13:12:12.923Z,9.93
2018-11-10T13:14:40.930Z,9.73
2018-11-10T13:17:09.046Z,8.77
2018-11-10T13:19:37.081Z,9.87
2018-11-10T13:22:05.238Z,9.30
2018-11-10T13:24:33.311Z,9.20
2018-11-10T13:27:01.366Z,9.80
2018-11-10T13:29:29.414Z,9.37
2018-11-10T13:31:57.681Z,10.10
2018-11-10T13:34:25.726Z,10.70
2018-11-10T13:36:53.778Z,10.70
2018-11-10T13:39:21.834Z,10.37
2018-11-10T13:41:49.900Z,11.83
2018-11-10T13:44:17.957Z,9.77
2018-11-10T13:46:46.202Z,9.03
2018-11-10T13:49:14.291Z,9.53
2018-11-10T13:51:42.504Z,10.03
2018-11-10T13:54:10.421Z,9.63
2018-11-10T13:56:38.502Z,10.10
2018-11-10T13:59:06.585Z,10.67
2018-11-10T14:01:34.624Z,9.23
2018-11-10T14:04:02.678Z,9.47
2018-11-10T14:06:30.719Z,9.63
2018-11-10T14:08:58.776Z,9.87
2018-11-10T14:11:26.830Z,9.90
2018-11-10T14:13:54.983Z,17.77
2018-11-10T14:16:23.056Z,13.07
2018-11-10T14:18:51.104Z,10.70
2018-11-10T14:21:19.162Z,11.07
2018-11-10T14:23:47.288Z,11.17
2018-11-10T14:26:15.437Z,14.27
2018-11-10T14:28:43.419Z,11.63
2018-11-10T14:31:11.521Z,13.60
2018-11-10T14:33:39.571Z,12.37
2018-11-10T14:36:07.649Z,11.90
2018-11-10T14:38:35.725Z,12.03
2018-11-10T14:41:04.162Z,11.13
2018-11-10T14:43:32.954Z,11.90
2018-11-10T14:46:01.733Z,11.70
2018-11-10T14:48:29.837Z,10.30
2018-11-10T14:50:58.253Z,12.13
2018-11-10T14:53:26.405Z,11.97
2018-11-10T14:55:54.751Z,12.50
2018-11-10T14:58:22.799Z,11.73
2018-11-10T15:00:50.889Z,10.53
2018-11-10T15:03:18.961Z,13.20
2018-11-10T15:05:47.172Z,11.43
2018-11-10T15:08:15.378Z,11.83
2018-11-10T15:10:43.743Z,11.73
2018-11-10T15:13:11.809Z,11.90
2018-11-10T15:15:39.854Z,11.87
2018-11-10T15:18:07.999Z,14.03
2018-11-10T15:20:35.961Z,10.50
2018-11-10T15:23:04.229Z,11.53
2018-11-10T15:25:32.285Z,13.67
2018-11-10T15:28:00.377Z,13.93
2018-11-10T15:30:28.422Z,12.80
2018-11-10T15:32:57.319Z,12.80
2018-11-10T15:35:25.378Z,12.90
2018-11-10T15:37:53.533Z,17.33
2018-11-10T15:40:22.229Z,15.20
2018-11-10T15:42:50.277Z,16.33
2018-11-10T15:45:19.274Z,16.53
2018-11-10T15:47:47.327Z,15.03
2018-11-10T15:50:16.395Z,16.80
2018-11-10T15:52:44.442Z,16.00
2018-11-10T15:55:13.116Z,17.80
2018-11-10T15:57:41.489Z,18.23
2018-11-10T16:00:11.909Z,17.30
2018-11-10T16:02:40.212Z,17.80
2018-11-10T16:05:09.193Z,17.47
2018-11-10T16:07:37.489Z,18.17
2018-11-10T16:10:06.008Z,19.00
2018-11-10T16:12:34.210Z,18.20
2018-11-10T16:15:02.490Z,21.07
2018-11-10T16:17:30.661Z,19.90
2018-11-10T16:19:58.729Z,18.00
2018-11-10T16:22:26.806Z,19.93
2018-11-10T16:24:55.588Z,18.17
2018-11-10T16:27:23.638Z,18.47
2018-11-10T16:29:51.710Z,18.60
2018-11-10T16:32:19.771Z,22.00
2018-11-10T16:34:47.869Z,19.13
2018-11-10T16:37:17.040Z,19.13
2018-11-10T16:39:44.999Z,17.80
2018-11-10T16:42:13.054Z,21.20
2018-11-10T16:44:42.047Z,19.63
2018-11-10T16:47:10.037Z,19.47
2018-11-10T16:49:38.119Z,20.20
2018-11-10T16:52:06.179Z,20.10
2018-11-10T16:54:34.264Z,20.20
2018-11-10T16:57:02.306Z,21.07
2018-11-10T16:59:30.345Z,20.00
2018-11-10T17:01:58.398Z,21.00
2018-11-10T17:04:26.437Z,22.13
2018-11-10T17:06:54.503Z,21.60
2018-11-10T17:09:22.586Z,22.57
2018-11-10T17:11:50.645Z,21.60
2018-11-10T17:14:18.715Z,23.73
2018-11-10T17:16:46.716Z,22.73
2018-11-10T17:19:14.766Z,21.93
2018-11-10T17:21:42.897Z,23.90
2018-11-10T17:24:10.901Z,23.40
2018-11-10T17:26:38.966Z,23.83
2018-11-10T17:29:07.149Z,23.30
2018-11-10T17:31:35.219Z,24.43
2018-11-10T17:34:03.265Z,22.77
2018-11-10T17:36:31.317Z,24.20
2018-11-10T17:38:59.373Z,24.40
2018-11-10T17:41:27.426Z,22.47
2018-11-10T17:43:55.474Z,25.43
2018-11-10T17:46:24.197Z,25.07
2018-11-10T17:48:52.290Z,23.93
2018-11-10T17:51:20.337Z,29.50
2018-11-10T17:53:48.397Z,24.50
2018-11-10T17:56:16.449Z,25.63
2018-11-10T17:58:44.548Z,23.40
2018-11-10T18:01:12.560Z,23.97
2018-11-10T18:03:40.619Z,23.17
2018-11-10T18:06:08.662Z,23.70
2018-11-10T18:08:36.702Z,24.57
2018-11-10T18:11:05.234Z,24.33
2018-11-10T18:13:33.283Z,25.67
2018-11-10T18:16:01.320Z,21.73
2018-11-10T18:18:29.382Z,23.40
2018-11-10T18:20:57.419Z,22.80
2018-11-10T18:23:25.617Z,24.17
2018-11-10T18:25:53.658Z,23.57
2018-11-10T18:28:21.762Z,25.20
2018-11-10T18:30:50.126Z,23.40
2018-11-10T18:33:18.450Z,23.57
2018-11-10T18:35:46.522Z,22.97
2018-11-10T18:38:14.565Z,24.17
2018-11-10T18:40:42.609Z,25.50
2018-11-10T18:43:10.677Z,23.60
2018-11-10T18:45:38.705Z,24.07
2018-11-10T18:48:06.787Z,24.50
2018-11-10T18:50:35.318Z,24.73
2018-11-10T18:53:03.353Z,25.17
2018-11-10T18:55:31.390Z,28.37
2018-11-10T18:57:59.473Z,25.83
2018-11-10T19:00:27.545Z,24.57
2018-11-10T19:02:55.612Z,25.07
2018-11-10T19:05:23.655Z,28.67
2018-11-10T19:07:51.708Z,25.63
2018-11-10T19:10:19.749Z,26.57
2018-11-10T19:12:47.870Z,24.17
2018-11-10T19:15:18.217Z,25.20
2018-11-10T19:17:46.274Z,24.13
2018-11-10T19:20:14.888Z,25.90
2018-11-10T19:22:42.945Z,25.70
2018-11-10T19:25:12.233Z,23.47
2018-11-10T19:27:41.437Z,25.10
2018-11-10T19:30:12.790Z,23.03
2018-11-10T19:32:41.087Z,23.97
2018-11-10T19:35:09.145Z,22.97
2018-11-10T19:37:37.187Z,23.47
2018-11-10T19:40:06.225Z,24.30
2018-11-10T19:42:34.269Z,23.30
2018-11-10T19:45:02.329Z,22.13
2018-11-10T19:47:30.471Z,23.03
2018-11-10T19:49:58.560Z,21.93
2018-11-10T19:52:26.549Z,23.73
2018-11-10T19:54:54.605Z,22.23
2018-11-10T19:57:22.660Z,19.50
2018-11-10T19:59:50.704Z,21.90
2018-11-10T20:02:18.749Z,20.77
2018-11-10T20:04:46.793Z,20.80
2018-11-10T20:07:14.827Z,21.90
2018-11-10T20:09:43.098Z,20.07
2018-11-10T20:12:11.174Z,20.83
2018-11-10T20:14:39.384Z,19.90
2018-11-10T20:17:07.234Z,19.87
2018-11-10T20:19:35.434Z,18.60
2018-11-10T20:22:03.658Z,20.93
2018-11-10T20:24:31.890Z,18.70
2018-11-10T20:26:59.982Z,20.73
2018-11-10T20:29:28.125Z,19.70
2018-11-10T20:31:56.214Z,18.90
2018-11-10T20:34:24.481Z,17.80
2018-11-10T20:36:52.853Z,17.50
2018-11-10T20:39:20.918Z,16.30
2018-11-10T20:41:48.958Z,17.87
2018-11-10T20:44:17.018Z,15.67
2018-11-10T20:46:45.070Z,16.00
2018-11-10T20:49:13.113Z,16.20
2018-11-10T20:51:41.177Z,18.70
2018-11-10T20:54:09.262Z,15.70
2018-11-10T20:56:37.333Z,14.77
2018-11-10T20:59:05.661Z,15.93
2018-11-10T21:01:33.701Z,15.23
2018-11-10T21:04:01.745Z,14.40
2018-11-10T21:06:29.799Z,14.70
2018-11-10T21:08:57.913Z,19.93
2018-11-10T21:11:25.941Z,13.90
2018-11-10T21:13:54.010Z,12.60
2018-11-10T21:16:22.063Z,13.40
2018-11-10T21:18:50.105Z,15.20
2018-11-10T21:21:18.182Z,13.10
2018-11-10T21:23:46.255Z,16.87
2018-11-10T21:26:14.314Z,12.23
2018-11-10T21:28:42.443Z,11.00
2018-11-10T21:31:10.426Z,10.87
2018-11-10T21:33:39.093Z,12.13
2018-11-10T21:36:07.091Z,12.83
2018-11-10T21:38:35.137Z,11.43
2018-11-10T21:41:03.241Z,12.07
2018-11-10T21:43:31.548Z,12.17
2018-11-10T21:45:59.665Z,13.00
2018-11-10T21:48:27.726Z,11.80
2018-11-10T21:50:56.353Z,9.93
2018-11-10T21:53:24.498Z,11.90
2018-11-10T21:55:52.549Z,10.47
2018-11-10T21:58:20.609Z,12.40
2018-11-10T22:00:48.825Z,17.07
2018-11-10T22:03:17.542Z,12.93
2018-11-10T22:05:45.623Z,11.60
2018-11-10T22:08:13.718Z,11.13
2018-11-10T22:10:41.853Z,12.40
2018-11-10T22:13:10.201Z,11.37
2018-11-10T22:15:38.339Z,13.00
2018-11-10T22:18:06.391Z,10.80
2018-11-10T22:20:34.628Z,13.17
2018-11-10T22:23:02.839Z,12.67
2018-11-10T22:25:30.894Z,11.73
2018-11-10T22:27:58.965Z,11.83
2018-11-10T22:30:27.062Z,18.90
2018-11-10T22:32:55.200Z,13.70
2018-11-10T22:35:23.371Z,12.30
2018-11-10T22:37:51.455Z,12.20
2018-11-10T22:40:20.898Z,12.10
2018-11-10T22:42:49.321Z,13.03
2018-11-10T22:45:19.754Z,11.53
2018-11-10T22:47:48.014Z,11.30
2018-11-10T22:50:18.406Z,12.00
2018-11-10T22:52:46.769Z,11.60
2018-11-10T22:55:14.901Z,12.47
2018-11-10T22:57:43.011Z,12.40
2018-11-10T23:00:16.717Z,9.80
2018-11-10T23:02:47.138Z,11.50
2018-11-10T23:05:15.804Z,10.20
2018-11-10T23:07:43.933Z,9.60
2018-11-10T23:10:12.510Z,9.83
2018-11-10T23:12:40.769Z,11.00
2018-11-10T23:15:09.037Z,9.80
2018-11-10T23:17:37.957Z,11.27
2018-11-10T23:20:07.432Z,14.13
2018-11-10T23:22:36.829Z,10.00
2018-11-10T23:25:05.869Z,11.70
2018-11-10T23:27:33.913Z,11.07
2018-11-10T23:30:01.976Z,16.90
2018-11-10T23:32:30.042Z,11.17
2018-11-10T23:34:58.164Z,9.20
2018-11-10T23:37:26.218Z,9.70
2018-11-10T23:39:54.274Z,10.30
2018-11-10T23:42:22.309Z,9.90
2018-11-10T23:44:50.369Z,56.30
2018-11-10T23:47:18.527Z,11.63
2018-11-10T23:49:46.562Z,9.67
2018-11-10T23:52:14.611Z,10.00
2018-11-10T23:54:42.682Z,10.50
2018-11-10T23:57:10.714Z,9.63
2018-11-10T23:59:38.813Z,10.93
